sensor_id;sensor_type;location;lat;lon;timestamp;P1;durP1;ratioP1;P2;durP2;ratioP2
36449;SDS011;22475;51.390;7.180;2023-07-08T00:01:55;1.92;;;1.73;;
36449;SDS011;22475;51.390;7.180;2023-07-08T00:04:23;1.00;;;0.90;;
36449;SDS011;22475;51.390;7.180;2023-07-08T00:06:51;1.08;;;1.02;;
36449;SDS011;22475;51.390;7.180;2023-07-08T00:09:17;0.93;;;0.93;;
36449;SDS011;22475;51.390;7.180;2023-07-08T00:11:44;1.13;;;1.00;;
36449;SDS011;22475;51.390;7.180;2023-07-08T00:14:11;1.70;;;1.25;;
36449;SDS011;22475;51.390;7.180;2023-07-08T00:16:37;1.27;;;1.20;;
36449;SDS011;22475;51.390;7.180;2023-07-08T00:19:07;1.92;;;1.30;;
36449;SDS011;22475;51.390;7.180;2023-07-08T00:21:36;1.13;;;1.02;;
36449;SDS011;22475;51.390;7.180;2023-07-08T00:24:03;1.08;;;1.02;;
36449;SDS011;22475;51.390;7.180;2023-07-08T00:26:30;1.20;;;1.00;;
36449;SDS011;22475;51.390;7.180;2023-07-08T00:28:57;1.40;;;1.17;;
36449;SDS011;22475;51.390;7.180;2023-07-08T00:31:24;1.25;;;1.15;;
36449;SDS011;22475;51.390;7.180;2023-07-08T00:33:52;1.13;;;1.02;;
36449;SDS011;22475;51.390;7.180;2023-07-08T00:36:21;1.20;;;1.10;;
36449;SDS011;22475;51.390;7.180;2023-07-08T00:38:50;2.13;;;2.03;;
36449;SDS011;22475;51.390;7.180;2023-07-08T00:41:18;1.35;;;1.25;;
36449;SDS011;22475;51.390;7.180;2023-07-08T00:43:50;1.80;;;1.27;;
36449;SDS011;22475;51.390;7.180;2023-07-08T00:46:21;1.15;;;1.02;;
36449;SDS011;22475;51.390;7.180;2023-07-08T00:48:58;1.90;;;1.25;;
36449;SDS011;22475;51.390;7.180;2023-07-08T00:51:30;1.48;;;0.82;;
36449;SDS011;22475;51.390;7.180;2023-07-08T00:53:58;1.55;;;1.30;;
36449;SDS011;22475;51.390;7.180;2023-07-08T00:56:25;2.78;;;1.30;;
36449;SDS011;22475;51.390;7.180;2023-07-08T00:58:56;1.88;;;1.77;;
36449;SDS011;22475;51.390;7.180;2023-07-08T01:03:54;1.17;;;1.13;;
36449;SDS011;22475;51.390;7.180;2023-07-08T01:06:26;2.17;;;1.15;;
36449;SDS011;22475;51.390;7.180;2023-07-08T01:08:57;0.85;;;0.82;;
36449;SDS011;22475;51.390;7.180;2023-07-08T01:11:27;0.98;;;0.95;;
36449;SDS011;22475;51.390;7.180;2023-07-08T01:13:55;0.77;;;0.77;;
36449;SDS011;22475;51.390;7.180;2023-07-08T01:16:25;2.53;;;1.05;;
36449;SDS011;22475;51.390;7.180;2023-07-08T01:18:52;1.95;;;1.15;;
36449;SDS011;22475;51.390;7.180;2023-07-08T01:21:27;1.50;;;1.40;;
36449;SDS011;22475;51.390;7.180;2023-07-08T01:23:58;0.98;;;0.88;;
36449;SDS011;22475;51.390;7.180;2023-07-08T01:26:26;0.90;;;0.90;;
36449;SDS011;22475;51.390;7.180;2023-07-08T01:28:55;1.63;;;1.15;;
36449;SDS011;22475;51.390;7.180;2023-07-08T01:31:23;0.75;;;0.75;;
36449;SDS011;22475;51.390;7.180;2023-07-08T01:33:49;1.10;;;0.80;;
36449;SDS011;22475;51.390;7.180;2023-07-08T01:36:18;0.95;;;0.90;;
36449;SDS011;22475;51.390;7.180;2023-07-08T01:38:45;1.27;;;1.17;;
36449;SDS011;22475;51.390;7.180;2023-07-08T01:41:14;1.30;;;1.10;;
36449;SDS011;22475;51.390;7.180;2023-07-08T01:43:43;1.40;;;1.30;;
36449;SDS011;22475;51.390;7.180;2023-07-08T01:46:11;1.20;;;0.90;;
36449;SDS011;22475;51.390;7.180;2023-07-08T01:48:40;1.05;;;1.05;;
36449;SDS011;22475;51.390;7.180;2023-07-08T01:51:10;1.20;;;1.10;;
36449;SDS011;22475;51.390;7.180;2023-07-08T01:53:38;1.38;;;1.08;;
36449;SDS011;22475;51.390;7.180;2023-07-08T01:56:07;1.40;;;1.00;;
36449;SDS011;22475;51.390;7.180;2023-07-08T01:58:36;1.10;;;1.00;;
36449;SDS011;22475;51.390;7.180;2023-07-08T02:01:02;1.52;;;1.42;;
36449;SDS011;22475;51.390;7.180;2023-07-08T02:03:30;1.35;;;1.25;;
36449;SDS011;22475;51.390;7.180;2023-07-08T02:05:57;1.35;;;1.25;;
36449;SDS011;22475;51.390;7.180;2023-07-08T02:08:24;1.05;;;0.95;;
36449;SDS011;22475;51.390;7.180;2023-07-08T02:10:51;1.23;;;1.13;;
36449;SDS011;22475;51.390;7.180;2023-07-08T02:13:19;1.48;;;1.33;;
36449;SDS011;22475;51.390;7.180;2023-07-08T02:15:49;1.42;;;1.33;;
36449;SDS011;22475;51.390;7.180;2023-07-08T02:18:16;1.45;;;1.08;;
36449;SDS011;22475;51.390;7.180;2023-07-08T02:20:44;1.27;;;1.17;;
36449;SDS011;22475;51.390;7.180;2023-07-08T02:23:11;0.63;;;0.63;;
36449;SDS011;22475;51.390;7.180;2023-07-08T02:25:39;1.67;;;1.08;;
36449;SDS011;22475;51.390;7.180;2023-07-08T02:28:06;1.10;;;1.00;;
36449;SDS011;22475;51.390;7.180;2023-07-08T02:30:33;1.23;;;1.05;;
36449;SDS011;22475;51.390;7.180;2023-07-08T02:33:01;1.15;;;1.10;;
36449;SDS011;22475;51.390;7.180;2023-07-08T02:35:28;1.73;;;1.63;;
36449;SDS011;22475;51.390;7.180;2023-07-08T02:37:56;1.60;;;1.42;;
36449;SDS011;22475;51.390;7.180;2023-07-08T02:40:23;1.38;;;1.23;;
36449;SDS011;22475;51.390;7.180;2023-07-08T02:42:51;1.30;;;1.20;;
36449;SDS011;22475;51.390;7.180;2023-07-08T02:45:18;1.80;;;1.10;;
36449;SDS011;22475;51.390;7.180;2023-07-08T02:47:45;2.33;;;1.23;;
36449;SDS011;22475;51.390;7.180;2023-07-08T02:50:13;1.42;;;1.33;;
36449;SDS011;22475;51.390;7.180;2023-07-08T02:52:42;1.85;;;1.05;;
36449;SDS011;22475;51.390;7.180;2023-07-08T02:55:08;1.70;;;1.60;;
36449;SDS011;22475;51.390;7.180;2023-07-08T02:57:35;1.65;;;1.38;;
36449;SDS011;22475;51.390;7.180;2023-07-08T03:00:02;1.30;;;1.20;;
36449;SDS011;22475;51.390;7.180;2023-07-08T03:02:31;8.65;;;1.38;;
36449;SDS011;22475;51.390;7.180;2023-07-08T03:04:58;1.02;;;0.98;;
36449;SDS011;22475;51.390;7.180;2023-07-08T03:07:27;1.63;;;1.52;;
36449;SDS011;22475;51.390;7.180;2023-07-08T03:09:54;2.10;;;1.45;;
36449;SDS011;22475;51.390;7.180;2023-07-08T03:12:20;1.50;;;1.20;;
36449;SDS011;22475;51.390;7.180;2023-07-08T03:14:47;1.05;;;1.05;;
36449;SDS011;22475;51.390;7.180;2023-07-08T03:17:14;1.73;;;0.75;;
36449;SDS011;22475;51.390;7.180;2023-07-08T03:19:42;1.33;;;1.23;;
36449;SDS011;22475;51.390;7.180;2023-07-08T03:22:09;1.75;;;1.42;;
36449;SDS011;22475;51.390;7.180;2023-07-08T03:24:37;2.28;;;1.60;;
36449;SDS011;22475;51.390;7.180;2023-07-08T03:27:10;1.20;;;1.20;;
36449;SDS011;22475;51.390;7.180;2023-07-08T03:29:38;1.85;;;1.67;;
36449;SDS011;22475;51.390;7.180;2023-07-08T03:32:05;3.05;;;1.85;;
36449;SDS011;22475;51.390;7.180;2023-07-08T03:34:34;1.45;;;1.35;;
36449;SDS011;22475;51.390;7.180;2023-07-08T03:37:00;2.00;;;1.63;;
36449;SDS011;22475;51.390;7.180;2023-07-08T03:39:27;1.13;;;1.02;;
36449;SDS011;22475;51.390;7.180;2023-07-08T03:41:56;1.75;;;1.45;;
36449;SDS011;22475;51.390;7.180;2023-07-08T03:44:23;2.47;;;1.45;;
36449;SDS011;22475;51.390;7.180;2023-07-08T03:46:50;1.33;;;1.23;;
36449;SDS011;22475;51.390;7.180;2023-07-08T03:49:17;1.23;;;1.13;;
36449;SDS011;22475;51.390;7.180;2023-07-08T03:51:47;2.33;;;1.55;;
36449;SDS011;22475;51.390;7.180;2023-07-08T03:54:14;1.90;;;1.40;;
36449;SDS011;22475;51.390;7.180;2023-07-08T03:56:41;3.25;;;1.40;;
36449;SDS011;22475;51.390;7.180;2023-07-08T03:59:09;3.28;;;1.33;;
36449;SDS011;22475;51.390;7.180;2023-07-08T04:01:36;3.28;;;1.77;;
36449;SDS011;22475;51.390;7.180;2023-07-08T04:04:06;1.70;;;1.60;;
36449;SDS011;22475;51.390;7.180;2023-07-08T04:06:34;3.10;;;1.83;;
36449;SDS011;22475;51.390;7.180;2023-07-08T04:09:01;2.22;;;1.83;;
36449;SDS011;22475;51.390;7.180;2023-07-08T04:11:28;1.63;;;1.50;;
36449;SDS011;22475;51.390;7.180;2023-07-08T04:13:55;2.05;;;1.83;;
36449;SDS011;22475;51.390;7.180;2023-07-08T04:16:23;7.43;;;2.03;;
36449;SDS011;22475;51.390;7.180;2023-07-08T04:18:53;2.58;;;1.80;;
36449;SDS011;22475;51.390;7.180;2023-07-08T04:21:20;2.60;;;1.67;;
36449;SDS011;22475;51.390;7.180;2023-07-08T04:23:48;2.35;;;2.15;;
36449;SDS011;22475;51.390;7.180;2023-07-08T04:26:15;2.10;;;1.90;;
36449;SDS011;22475;51.390;7.180;2023-07-08T04:28:42;3.53;;;2.30;;
36449;SDS011;22475;51.390;7.180;2023-07-08T04:31:08;2.90;;;1.90;;
36449;SDS011;22475;51.390;7.180;2023-07-08T04:33:37;2.15;;;1.98;;
36449;SDS011;22475;51.390;7.180;2023-07-08T04:36:04;2.90;;;1.50;;
36449;SDS011;22475;51.390;7.180;2023-07-08T04:38:35;3.58;;;2.30;;
36449;SDS011;22475;51.390;7.180;2023-07-08T04:41:02;2.47;;;2.13;;
36449;SDS011;22475;51.390;7.180;2023-07-08T04:43:30;2.47;;;1.90;;
36449;SDS011;22475;51.390;7.180;2023-07-08T04:45:57;1.88;;;1.70;;
36449;SDS011;22475;51.390;7.180;2023-07-08T04:48:24;1.52;;;1.42;;
36449;SDS011;22475;51.390;7.180;2023-07-08T04:50:52;2.08;;;1.88;;
36449;SDS011;22475;51.390;7.180;2023-07-08T04:53:19;6.85;;;2.45;;
36449;SDS011;22475;51.390;7.180;2023-07-08T04:55:47;5.93;;;1.98;;
36449;SDS011;22475;51.390;7.180;2023-07-08T04:58:16;1.85;;;1.75;;
36449;SDS011;22475;51.390;7.180;2023-07-08T05:00:43;2.25;;;2.03;;
36449;SDS011;22475;51.390;7.180;2023-07-08T05:03:09;2.00;;;1.80;;
36449;SDS011;22475;51.390;7.180;2023-07-08T05:05:36;2.78;;;1.88;;
36449;SDS011;22475;51.390;7.180;2023-07-08T05:08:05;4.75;;;2.10;;
36449;SDS011;22475;51.390;7.180;2023-07-08T05:10:32;3.55;;;1.73;;
36449;SDS011;22475;51.390;7.180;2023-07-08T05:12:59;2.45;;;1.48;;
36449;SDS011;22475;51.390;7.180;2023-07-08T05:15:26;9.60;;;1.98;;
36449;SDS011;22475;51.390;7.180;2023-07-08T05:17:53;1.92;;;1.73;;
36449;SDS011;22475;51.390;7.180;2023-07-08T05:20:20;3.63;;;1.83;;
36449;SDS011;22475;51.390;7.180;2023-07-08T05:22:47;8.10;;;2.53;;
36449;SDS011;22475;51.390;7.180;2023-07-08T05:25:17;2.05;;;1.95;;
36449;SDS011;22475;51.390;7.180;2023-07-08T05:27:45;1.50;;;1.40;;
36449;SDS011;22475;51.390;7.180;2023-07-08T05:30:12;6.20;;;1.58;;
36449;SDS011;22475;51.390;7.180;2023-07-08T05:32:41;0.83;;;0.83;;
36449;SDS011;22475;51.390;7.180;2023-07-08T05:35:08;2.47;;;1.30;;
36449;SDS011;22475;51.390;7.180;2023-07-08T05:37:35;3.28;;;2.17;;
36449;SDS011;22475;51.390;7.180;2023-07-08T05:40:02;3.92;;;1.58;;
36449;SDS011;22475;51.390;7.180;2023-07-08T05:42:31;1.73;;;1.63;;
36449;SDS011;22475;51.390;7.180;2023-07-08T05:44:58;1.30;;;1.20;;
36449;SDS011;22475;51.390;7.180;2023-07-08T05:47:25;1.85;;;1.63;;
36449;SDS011;22475;51.390;7.180;2023-07-08T05:49:52;1.67;;;1.25;;
36449;SDS011;22475;51.390;7.180;2023-07-08T05:52:18;1.35;;;1.25;;
36449;SDS011;22475;51.390;7.180;2023-07-08T05:54:45;1.67;;;1.58;;
36449;SDS011;22475;51.390;7.180;2023-07-08T05:57:12;1.30;;;1.20;;
36449;SDS011;22475;51.390;7.180;2023-07-08T05:59:40;1.40;;;1.30;;
36449;SDS011;22475;51.390;7.180;2023-07-08T06:02:08;1.38;;;1.27;;
36449;SDS011;22475;51.390;7.180;2023-07-08T06:04:37;1.10;;;1.10;;
36449;SDS011;22475;51.390;7.180;2023-07-08T06:07:04;1.67;;;1.42;;
36449;SDS011;22475;51.390;7.180;2023-07-08T06:09:31;1.42;;;1.13;;
36449;SDS011;22475;51.390;7.180;2023-07-08T06:11:58;2.25;;;1.05;;
36449;SDS011;22475;51.390;7.180;2023-07-08T06:14:25;1.23;;;1.13;;
36449;SDS011;22475;51.390;7.180;2023-07-08T06:16:53;1.20;;;1.10;;
36449;SDS011;22475;51.390;7.180;2023-07-08T06:19:20;2.05;;;1.13;;
36449;SDS011;22475;51.390;7.180;2023-07-08T06:21:47;1.42;;;1.33;;
36449;SDS011;22475;51.390;7.180;2023-07-08T06:24:14;1.42;;;1.30;;
36449;SDS011;22475;51.390;7.180;2023-07-08T06:26:41;1.08;;;0.90;;
36449;SDS011;22475;51.390;7.180;2023-07-08T06:29:07;1.40;;;1.05;;
36449;SDS011;22475;51.390;7.180;2023-07-08T06:31:34;0.88;;;0.88;;
36449;SDS011;22475;51.390;7.180;2023-07-08T06:34:02;1.80;;;1.00;;
36449;SDS011;22475;51.390;7.180;2023-07-08T06:36:29;1.38;;;1.27;;
36449;SDS011;22475;51.390;7.180;2023-07-08T06:38:56;1.48;;;1.25;;
36449;SDS011;22475;51.390;7.180;2023-07-08T06:41:23;1.13;;;1.00;;
36449;SDS011;22475;51.390;7.180;2023-07-08T06:43:50;1.25;;;1.15;;
36449;SDS011;22475;51.390;7.180;2023-07-08T06:46:17;1.40;;;1.30;;
36449;SDS011;22475;51.390;7.180;2023-07-08T06:48:44;0.90;;;0.88;;
36449;SDS011;22475;51.390;7.180;2023-07-08T06:51:13;1.40;;;1.30;;
36449;SDS011;22475;51.390;7.180;2023-07-08T06:53:39;1.23;;;1.13;;
36449;SDS011;22475;51.390;7.180;2023-07-08T06:56:06;1.27;;;1.17;;
36449;SDS011;22475;51.390;7.180;2023-07-08T06:58:33;1.15;;;0.90;;
36449;SDS011;22475;51.390;7.180;2023-07-08T07:01:00;1.58;;;1.48;;
36449;SDS011;22475;51.390;7.180;2023-07-08T07:03:27;1.33;;;0.82;;
36449;SDS011;22475;51.390;7.180;2023-07-08T07:05:53;1.27;;;0.98;;
36449;SDS011;22475;51.390;7.180;2023-07-08T07:08:21;3.13;;;1.20;;
36449;SDS011;22475;51.390;7.180;2023-07-08T07:10:48;1.00;;;0.90;;
36449;SDS011;22475;51.390;7.180;2023-07-08T07:13:15;1.77;;;1.35;;
36449;SDS011;22475;51.390;7.180;2023-07-08T07:15:42;1.02;;;1.00;;
36449;SDS011;22475;51.390;7.180;2023-07-08T07:18:08;1.10;;;1.10;;
36449;SDS011;22475;51.390;7.180;2023-07-08T07:20:36;1.00;;;1.00;;
36449;SDS011;22475;51.390;7.180;2023-07-08T07:23:03;1.50;;;1.40;;
36449;SDS011;22475;51.390;7.180;2023-07-08T07:25:31;1.20;;;0.90;;
36449;SDS011;22475;51.390;7.180;2023-07-08T07:27:58;2.05;;;1.20;;
36449;SDS011;22475;51.390;7.180;2023-07-08T07:30:26;1.30;;;1.20;;
36449;SDS011;22475;51.390;7.180;2023-07-08T07:32:52;2.13;;;1.15;;
36449;SDS011;22475;51.390;7.180;2023-07-08T07:35:19;0.75;;;0.75;;
36449;SDS011;22475;51.390;7.180;2023-07-08T07:37:46;1.20;;;1.10;;
36449;SDS011;22475;51.390;7.180;2023-07-08T07:40:13;3.00;;;1.15;;
36449;SDS011;22475;51.390;7.180;2023-07-08T07:42:42;1.80;;;0.93;;
36449;SDS011;22475;51.390;7.180;2023-07-08T07:45:10;1.47;;;1.37;;
36449;SDS011;22475;51.390;7.180;2023-07-08T07:47:39;1.63;;;1.52;;
36449;SDS011;22475;51.390;7.180;2023-07-08T07:50:06;3.60;;;1.30;;
36449;SDS011;22475;51.390;7.180;2023-07-08T07:52:35;1.20;;;1.10;;
36449;SDS011;22475;51.390;7.180;2023-07-08T07:55:02;3.97;;;1.15;;
36449;SDS011;22475;51.390;7.180;2023-07-08T07:57:29;1.35;;;1.25;;
36449;SDS011;22475;51.390;7.180;2023-07-08T07:59:57;4.55;;;1.13;;
36449;SDS011;22475;51.390;7.180;2023-07-08T08:02:24;4.43;;;1.52;;
36449;SDS011;22475;51.390;7.180;2023-07-08T08:04:51;4.05;;;1.80;;
36449;SDS011;22475;51.390;7.180;2023-07-08T08:07:17;0.85;;;0.85;;
36449;SDS011;22475;51.390;7.180;2023-07-08T08:09:44;2.60;;;1.38;;
36449;SDS011;22475;51.390;7.180;2023-07-08T08:12:11;3.70;;;1.40;;
36449;SDS011;22475;51.390;7.180;2023-07-08T08:14:38;3.60;;;1.80;;
36449;SDS011;22475;51.390;7.180;2023-07-08T08:17:06;4.97;;;1.25;;
36449;SDS011;22475;51.390;7.180;2023-07-08T08:19:33;2.00;;;1.42;;
36449;SDS011;22475;51.390;7.180;2023-07-08T08:22:00;1.63;;;1.20;;
36449;SDS011;22475;51.390;7.180;2023-07-08T08:24:27;1.45;;;1.35;;
36449;SDS011;22475;51.390;7.180;2023-07-08T08:26:54;1.42;;;0.98;;
36449;SDS011;22475;51.390;7.180;2023-07-08T08:29:21;4.22;;;1.63;;
36449;SDS011;22475;51.390;7.180;2023-07-08T08:31:47;2.67;;;1.60;;
36449;SDS011;22475;51.390;7.180;2023-07-08T08:34:17;2.85;;;1.60;;
36449;SDS011;22475;51.390;7.180;2023-07-08T08:36:44;2.17;;;1.48;;
36449;SDS011;22475;51.390;7.180;2023-07-08T08:39:10;2.15;;;1.70;;
36449;SDS011;22475;51.390;7.180;2023-07-08T08:41:38;3.65;;;1.98;;
36449;SDS011;22475;51.390;7.180;2023-07-08T08:44:08;5.75;;;1.40;;
36449;SDS011;22475;51.390;7.180;2023-07-08T08:46:41;3.20;;;1.63;;
36449;SDS011;22475;51.390;7.180;2023-07-08T08:49:18;2.85;;;1.42;;
36449;SDS011;22475;51.390;7.180;2023-07-08T08:51:50;5.30;;;1.80;;
36449;SDS011;22475;51.390;7.180;2023-07-08T08:54:17;5.20;;;1.70;;
36449;SDS011;22475;51.390;7.180;2023-07-08T08:56:46;2.05;;;1.85;;
36449;SDS011;22475;51.390;7.180;2023-07-08T08:59:23;4.50;;;2.53;;
36449;SDS011;22475;51.390;7.180;2023-07-08T09:01:58;2.25;;;2.05;;
36449;SDS011;22475;51.390;7.180;2023-07-08T09:04:29;5.57;;;1.83;;
36449;SDS011;22475;51.390;7.180;2023-07-08T09:07:03;2.33;;;1.40;;
36449;SDS011;22475;51.390;7.180;2023-07-08T09:09:35;5.88;;;2.05;;
36449;SDS011;22475;51.390;7.180;2023-07-08T09:12:06;5.85;;;2.30;;
36449;SDS011;22475;51.390;7.180;2023-07-08T09:14:38;2.40;;;2.00;;
36449;SDS011;22475;51.390;7.180;2023-07-08T09:17:11;3.38;;;1.98;;
36449;SDS011;22475;51.390;7.180;2023-07-08T09:19:44;5.90;;;2.00;;
36449;SDS011;22475;51.390;7.180;2023-07-08T09:22:16;2.83;;;1.55;;
36449;SDS011;22475;51.390;7.180;2023-07-08T09:24:48;4.32;;;2.05;;
36449;SDS011;22475;51.390;7.180;2023-07-08T09:27:19;3.35;;;2.65;;
36449;SDS011;22475;51.390;7.180;2023-07-08T09:29:46;5.50;;;2.10;;
36449;SDS011;22475;51.390;7.180;2023-07-08T09:32:15;2.75;;;2.00;;
36449;SDS011;22475;51.390;7.180;2023-07-08T09:34:45;6.03;;;2.10;;
36449;SDS011;22475;51.390;7.180;2023-07-08T09:37:23;2.22;;;1.95;;
36449;SDS011;22475;51.390;7.180;2023-07-08T09:39:52;4.30;;;2.83;;
36449;SDS011;22475;51.390;7.180;2023-07-08T09:42:21;9.43;;;2.50;;
36449;SDS011;22475;51.390;7.180;2023-07-08T09:44:54;2.10;;;1.75;;
36449;SDS011;22475;51.390;7.180;2023-07-08T09:47:22;4.72;;;2.30;;
36449;SDS011;22475;51.390;7.180;2023-07-08T09:49:52;4.33;;;2.53;;
36449;SDS011;22475;51.390;7.180;2023-07-08T09:52:19;3.15;;;2.03;;
36449;SDS011;22475;51.390;7.180;2023-07-08T09:54:46;3.53;;;2.90;;
36449;SDS011;22475;51.390;7.180;2023-07-08T09:57:17;5.82;;;2.65;;
36449;SDS011;22475;51.390;7.180;2023-07-08T09:59:53;4.72;;;2.72;;
36449;SDS011;22475;51.390;7.180;2023-07-08T10:02:29;7.72;;;3.05;;
36449;SDS011;22475;51.390;7.180;2023-07-08T10:05:00;4.22;;;2.85;;
36449;SDS011;22475;51.390;7.180;2023-07-08T10:07:31;5.75;;;3.03;;
36449;SDS011;22475;51.390;7.180;2023-07-08T10:09:59;5.40;;;3.08;;
36449;SDS011;22475;51.390;7.180;2023-07-08T10:14:56;2.75;;;2.17;;
36449;SDS011;22475;51.390;7.180;2023-07-08T10:17:27;3.40;;;3.10;;
36449;SDS011;22475;51.390;7.180;2023-07-08T10:19:55;3.20;;;3.00;;
36449;SDS011;22475;51.390;7.180;2023-07-08T10:22:25;2.50;;;2.30;;
36449;SDS011;22475;51.390;7.180;2023-07-08T10:25:04;3.60;;;2.30;;
36449;SDS011;22475;51.390;7.180;2023-07-08T10:27:45;3.15;;;2.85;;
36449;SDS011;22475;51.390;7.180;2023-07-08T10:30:19;2.53;;;2.22;;
36449;SDS011;22475;51.390;7.180;2023-07-08T10:35:42;2.70;;;2.35;;
36449;SDS011;22475;51.390;7.180;2023-07-08T10:38:25;5.35;;;3.38;;
36449;SDS011;22475;51.390;7.180;2023-07-08T10:41:05;3.42;;;3.15;;
36449;SDS011;22475;51.390;7.180;2023-07-08T10:43:44;5.50;;;2.72;;
36449;SDS011;22475;51.390;7.180;2023-07-08T10:46:24;4.93;;;2.70;;
36449;SDS011;22475;51.390;7.180;2023-07-08T10:49:02;3.45;;;2.78;;
36449;SDS011;22475;51.390;7.180;2023-07-08T10:51:45;3.17;;;2.65;;
36449;SDS011;22475;51.390;7.180;2023-07-08T10:54:41;3.63;;;2.95;;
36449;SDS011;22475;51.390;7.180;2023-07-08T10:57:35;3.50;;;2.55;;
36449;SDS011;22475;51.390;7.180;2023-07-08T11:00:18;4.72;;;2.80;;
36449;SDS011;22475;51.390;7.180;2023-07-08T11:03:01;3.75;;;3.45;;
36449;SDS011;22475;51.390;7.180;2023-07-08T11:05:50;3.97;;;2.55;;
36449;SDS011;22475;51.390;7.180;2023-07-08T11:08:25;3.17;;;2.88;;
36449;SDS011;22475;51.390;7.180;2023-07-08T11:11:03;2.67;;;2.28;;
36449;SDS011;22475;51.390;7.180;2023-07-08T11:13:34;2.67;;;2.47;;
36449;SDS011;22475;51.390;7.180;2023-07-08T11:16:10;5.20;;;2.45;;
36449;SDS011;22475;51.390;7.180;2023-07-08T11:18:44;2.65;;;2.33;;
36449;SDS011;22475;51.390;7.180;2023-07-08T11:21:17;3.95;;;2.50;;
36449;SDS011;22475;51.390;7.180;2023-07-08T11:23:50;2.92;;;2.28;;
36449;SDS011;22475;51.390;7.180;2023-07-08T11:26:22;2.92;;;2.28;;
36449;SDS011;22475;51.390;7.180;2023-07-08T11:28:54;3.15;;;2.30;;
36449;SDS011;22475;51.390;7.180;2023-07-08T11:31:24;2.78;;;2.20;;
36449;SDS011;22475;51.390;7.180;2023-07-08T11:33:53;2.60;;;2.10;;
36449;SDS011;22475;51.390;7.180;2023-07-08T11:36:22;3.25;;;2.55;;
36449;SDS011;22475;51.390;7.180;2023-07-08T11:38:52;4.28;;;3.25;;
36449;SDS011;22475;51.390;7.180;2023-07-08T11:41:22;2.60;;;2.35;;
36449;SDS011;22475;51.390;7.180;2023-07-08T11:43:57;3.63;;;2.60;;
36449;SDS011;22475;51.390;7.180;2023-07-08T11:46:25;3.58;;;2.25;;
36449;SDS011;22475;51.390;7.180;2023-07-08T11:48:55;5.85;;;2.63;;
36449;SDS011;22475;51.390;7.180;2023-07-08T11:51:27;3.55;;;3.20;;
36449;SDS011;22475;51.390;7.180;2023-07-08T11:54:00;3.20;;;2.90;;
36449;SDS011;22475;51.390;7.180;2023-07-08T11:56:47;6.53;;;2.90;;
36449;SDS011;22475;51.390;7.180;2023-07-08T11:59:17;3.35;;;2.72;;
36449;SDS011;22475;51.390;7.180;2023-07-08T12:01:46;5.03;;;2.85;;
36449;SDS011;22475;51.390;7.180;2023-07-08T12:04:27;2.63;;;2.42;;
36449;SDS011;22475;51.390;7.180;2023-07-08T12:07:06;2.42;;;2.22;;
36449;SDS011;22475;51.390;7.180;2023-07-08T12:09:38;3.20;;;2.40;;
36449;SDS011;22475;51.390;7.180;2023-07-08T12:12:16;2.42;;;2.08;;
36449;SDS011;22475;51.390;7.180;2023-07-08T12:14:47;3.80;;;3.00;;
36449;SDS011;22475;51.390;7.180;2023-07-08T12:17:14;2.88;;;2.63;;
36449;SDS011;22475;51.390;7.180;2023-07-08T12:19:42;2.97;;;2.30;;
36449;SDS011;22475;51.390;7.180;2023-07-08T12:22:10;2.65;;;2.33;;
36449;SDS011;22475;51.390;7.180;2023-07-08T12:24:38;2.78;;;2.20;;
36449;SDS011;22475;51.390;7.180;2023-07-08T12:27:05;4.53;;;2.20;;
36449;SDS011;22475;51.390;7.180;2023-07-08T12:29:36;3.30;;;2.55;;
36449;SDS011;22475;51.390;7.180;2023-07-08T12:32:03;4.28;;;3.10;;
36449;SDS011;22475;51.390;7.180;2023-07-08T12:34:31;4.25;;;1.95;;
36449;SDS011;22475;51.390;7.180;2023-07-08T12:36:58;4.40;;;3.08;;
36449;SDS011;22475;51.390;7.180;2023-07-08T12:39:25;3.28;;;2.47;;
36449;SDS011;22475;51.390;7.180;2023-07-08T12:41:52;3.00;;;2.70;;
36449;SDS011;22475;51.390;7.180;2023-07-08T12:44:19;3.60;;;3.05;;
36449;SDS011;22475;51.390;7.180;2023-07-08T12:46:49;3.63;;;2.28;;
36449;SDS011;22475;51.390;7.180;2023-07-08T12:49:19;3.13;;;2.83;;
36449;SDS011;22475;51.390;7.180;2023-07-08T12:51:47;3.22;;;2.67;;
36449;SDS011;22475;51.390;7.180;2023-07-08T12:54:14;3.88;;;2.30;;
36449;SDS011;22475;51.390;7.180;2023-07-08T12:56:43;4.38;;;3.22;;
36449;SDS011;22475;51.390;7.180;2023-07-08T12:59:11;2.97;;;2.65;;
36449;SDS011;22475;51.390;7.180;2023-07-08T13:01:43;4.53;;;3.05;;
36449;SDS011;22475;51.390;7.180;2023-07-08T13:04:14;3.23;;;2.93;;
36449;SDS011;22475;51.390;7.180;2023-07-08T13:06:42;2.72;;;2.35;;
36449;SDS011;22475;51.390;7.180;2023-07-08T13:09:20;2.78;;;2.55;;
36449;SDS011;22475;51.390;7.180;2023-07-08T13:11:56;4.40;;;2.53;;
36449;SDS011;22475;51.390;7.180;2023-07-08T13:14:23;3.10;;;2.65;;
36449;SDS011;22475;51.390;7.180;2023-07-08T13:16:51;3.85;;;3.00;;
36449;SDS011;22475;51.390;7.180;2023-07-08T13:19:20;3.67;;;2.88;;
36449;SDS011;22475;51.390;7.180;2023-07-08T13:21:47;3.50;;;2.67;;
36449;SDS011;22475;51.390;7.180;2023-07-08T13:24:14;4.78;;;2.95;;
36449;SDS011;22475;51.390;7.180;2023-07-08T13:26:45;3.20;;;2.60;;
36449;SDS011;22475;51.390;7.180;2023-07-08T13:29:14;2.78;;;2.53;;
36449;SDS011;22475;51.390;7.180;2023-07-08T13:31:45;4.18;;;3.10;;
36449;SDS011;22475;51.390;7.180;2023-07-08T13:34:15;4.63;;;2.47;;
36449;SDS011;22475;51.390;7.180;2023-07-08T13:36:45;3.55;;;2.78;;
36449;SDS011;22475;51.390;7.180;2023-07-08T13:39:15;4.20;;;3.13;;
36449;SDS011;22475;51.390;7.180;2023-07-08T13:41:47;3.00;;;2.70;;
36449;SDS011;22475;51.390;7.180;2023-07-08T13:44:16;3.40;;;2.40;;
36449;SDS011;22475;51.390;7.180;2023-07-08T13:46:44;8.35;;;3.67;;
36449;SDS011;22475;51.390;7.180;2023-07-08T13:49:19;3.03;;;2.40;;
36449;SDS011;22475;51.390;7.180;2023-07-08T13:51:50;3.80;;;3.42;;
36449;SDS011;22475;51.390;7.180;2023-07-08T13:54:21;2.60;;;2.40;;
36449;SDS011;22475;51.390;7.180;2023-07-08T13:59:18;2.72;;;2.50;;
36449;SDS011;22475;51.390;7.180;2023-07-08T14:01:48;4.57;;;2.75;;
36449;SDS011;22475;51.390;7.180;2023-07-08T14:04:18;2.55;;;2.35;;
36449;SDS011;22475;51.390;7.180;2023-07-08T14:06:52;2.95;;;2.75;;
36449;SDS011;22475;51.390;7.180;2023-07-08T14:09:19;8.75;;;2.80;;
36449;SDS011;22475;51.390;7.180;2023-07-08T14:11:50;4.15;;;2.95;;
36449;SDS011;22475;51.390;7.180;2023-07-08T14:14:18;5.80;;;3.03;;
36449;SDS011;22475;51.390;7.180;2023-07-08T14:16:45;5.32;;;3.17;;
36449;SDS011;22475;51.390;7.180;2023-07-08T14:19:14;7.88;;;3.22;;
36449;SDS011;22475;51.390;7.180;2023-07-08T14:21:46;14.80;;;3.25;;
36449;SDS011;22475;51.390;7.180;2023-07-08T14:24:16;4.57;;;2.90;;
36449;SDS011;22475;51.390;7.180;2023-07-08T14:26:43;14.65;;;3.15;;
36449;SDS011;22475;51.390;7.180;2023-07-08T14:29:10;12.05;;;2.95;;
36449;SDS011;22475;51.390;7.180;2023-07-08T14:31:38;10.02;;;3.17;;
36449;SDS011;22475;51.390;7.180;2023-07-08T14:34:06;7.28;;;2.53;;
36449;SDS011;22475;51.390;7.180;2023-07-08T14:36:35;4.97;;;2.65;;
36449;SDS011;22475;51.390;7.180;2023-07-08T14:39:07;3.75;;;2.63;;
36449;SDS011;22475;51.390;7.180;2023-07-08T14:41:38;3.60;;;2.50;;
36449;SDS011;22475;51.390;7.180;2023-07-08T14:44:18;5.07;;;2.88;;
36449;SDS011;22475;51.390;7.180;2023-07-08T14:46:47;4.88;;;2.78;;
36449;SDS011;22475;51.390;7.180;2023-07-08T14:49:15;2.80;;;2.60;;
36449;SDS011;22475;51.390;7.180;2023-07-08T14:51:43;7.40;;;2.80;;
36449;SDS011;22475;51.390;7.180;2023-07-08T14:54:10;3.33;;;2.60;;
36449;SDS011;22475;51.390;7.180;2023-07-08T14:56:39;6.93;;;3.38;;
36449;SDS011;22475;51.390;7.180;2023-07-08T14:59:06;2.75;;;2.55;;
36449;SDS011;22475;51.390;7.180;2023-07-08T15:01:38;3.97;;;2.67;;
36449;SDS011;22475;51.390;7.180;2023-07-08T15:04:08;2.15;;;2.00;;
36449;SDS011;22475;51.390;7.180;2023-07-08T15:06:36;17.90;;;3.08;;
36449;SDS011;22475;51.390;7.180;2023-07-08T15:09:03;4.28;;;2.92;;
36449;SDS011;22475;51.390;7.180;2023-07-08T15:11:31;3.28;;;2.55;;